Time,TemperatureF,DewpointF,PressureIn,WindDirection,WindDirectionDegrees,WindSpeedMPH,WindSpeedGustMPH,Humidity,HourlyPrecipIn,Conditions,Clouds,dailyrainin,SoftwareType,DateUTC
2013-08-08 00:01:00,62.0,31.0,-100.00,North,350,17.0,22.0,31,0.00,,,-99.99,,2013-08-08 06:01:00,
2013-08-08 00:11:00,62.0,31.0,-100.00,NNW,346,18.0,22.0,31,0.00,,,-99.99,,2013-08-08 06:11:00,
2013-08-08 00:21:00,61.0,31.0,-100.00,North,349,21.0,25.0,32,0.00,,,-99.99,,2013-08-08 06:21:00,
2013-08-08 00:32:00,61.0,32.0,-100.00,North,356,20.0,23.0,33,0.00,,,-99.99,,2013-08-08 06:32:00,
2013-08-08 00:43:00,61.0,32.0,-100.00,North,6,24.0,28.0,33,0.00,,,-99.99,,2013-08-08 06:43:00,
2013-08-08 00:52:00,61.0,32.0,-100.00,North,6,20.0,24.0,34,0.00,,,-99.99,,2013-08-08 06:52:00,
2013-08-08 01:01:00,60.0,33.0,-100.00,North,360,20.0,27.0,35,0.00,,,-99.99,,2013-08-08 07:01:00,
2013-08-08 01:12:00,60.0,32.0,-100.00,North,350,19.0,23.0,35,0.00,,,-99.99,,2013-08-08 07:12:00,
2013-08-08 01:22:00,60.0,33.0,-100.00,North,353,21.0,27.0,36,0.00,,,-99.99,,2013-08-08 07:22:00,
2013-08-08 01:32:00,60.0,34.0,-100.00,NNW,347,18.0,23.0,37,0.00,,,-99.99,,2013-08-08 07:32:00,
2013-08-08 01:43:00,59.0,34.0,-100.00,North,350,20.0,23.0,39,0.00,,,-99.99,,2013-08-08 07:43:00,
2013-08-08 01:53:00,59.0,35.0,-100.00,North,354,20.0,24.0,40,0.00,,,-99.99,,2013-08-08 07:53:00,
2013-08-08 02:02:00,59.0,35.0,-100.00,North,352,19.0,24.0,41,0.00,,,-99.99,,2013-08-08 08:02:00,
2013-08-08 02:11:00,59.0,37.0,-100.00,North,1,20.0,24.0,45,0.00,,,-99.99,,2013-08-08 08:11:00,
2013-08-08 02:22:00,58.0,38.0,-100.00,North,7,16.0,19.0,46,0.00,,,-99.99,,2013-08-08 08:22:00,
2013-08-08 02:32:00,58.0,38.0,-100.00,North,10,14.0,17.0,48,0.00,,,-99.99,,2013-08-08 08:32:00,
2013-08-08 02:43:00,58.0,39.0,-100.00,North,359,15.0,19.0,49,0.00,,,-99.99,,2013-08-08 08:43:00,
2013-08-08 02:53:00,58.0,40.0,-100.00,North,11,14.0,17.0,51,0.00,,,-99.99,,2013-08-08 08:53:00,
2013-08-08 03:01:00,57.0,40.0,-100.00,North,360,12.0,15.0,53,0.00,,,-99.99,,2013-08-08 09:01:00,
2013-08-08 03:12:00,58.0,40.0,-100.00,North,357,17.0,21.0,52,0.00,,,-99.99,,2013-08-08 09:12:00,
2013-08-08 03:22:00,57.0,40.0,-100.00,North,360,16.0,21.0,52,0.00,,,-99.99,,2013-08-08 09:22:00,
2013-08-08 03:32:00,57.0,41.0,-100.00,North,360,18.0,21.0,54,0.00,,,-99.99,,2013-08-08 09:32:00,
2013-08-08 03:43:00,57.0,41.0,-100.00,North,7,14.0,17.0,54,0.00,,,-99.99,,2013-08-08 09:43:00,
2013-08-08 03:53:00,57.0,41.0,-100.00,North,8,16.0,21.0,54,0.00,,,-99.99,,2013-08-08 09:53:00,
2013-08-08 04:01:00,57.0,40.0,-100.00,North,356,18.0,21.0,53,0.00,,,-99.99,,2013-08-08 10:01:00,
2013-08-08 04:12:00,57.0,40.0,-100.00,NNW,346,17.0,19.0,53,0.00,,,-99.99,,2013-08-08 10:12:00,
2013-08-08 04:22:00,57.0,40.0,-100.00,North,359,16.0,18.0,53,0.00,,,-99.99,,2013-08-08 10:22:00,
2013-08-08 04:32:00,57.0,40.0,-100.00,North,3,14.0,18.0,53,0.00,,,-99.99,,2013-08-08 10:32:00,
2013-08-08 04:43:00,56.0,40.0,-100.00,North,0,12.0,15.0,54,0.00,,,-99.99,,2013-08-08 10:43:00,
2013-08-08 04:52:00,57.0,40.0,-100.00,North,360,14.0,16.0,54,0.00,,,-99.99,,2013-08-08 10:52:00,
2013-08-08 05:02:00,56.0,40.0,-100.00,NNW,347,14.0,17.0,54,0.00,,,-99.99,,2013-08-08 11:02:00,
2013-08-08 05:11:00,57.0,40.0,-100.00,North,350,17.0,19.0,54,0.00,,,-99.99,,2013-08-08 11:11:00,
2013-08-08 05:21:00,56.0,40.0,-100.00,North,356,14.0,17.0,55,0.00,,,-99.99,,2013-08-08 11:21:00,
2013-08-08 05:32:00,57.0,40.0,-100.00,North,354,14.0,16.0,54,0.00,,,-99.99,,2013-08-08 11:32:00,
2013-08-08 05:43:00,57.0,41.0,-100.00,North,353,14.0,17.0,54,0.00,,,-99.99,,2013-08-08 11:43:00,
2013-08-08 05:52:00,57.0,41.0,-100.00,North,0,14.0,17.0,55,0.00,,,-99.99,,2013-08-08 11:52:00,
2013-08-08 06:01:00,57.0,41.0,-100.00,North,353,14.0,17.0,55,0.00,,,-99.99,,2013-08-08 12:01:00,
2013-08-08 06:11:00,57.0,40.0,-100.00,North,354,13.0,16.0,54,0.00,,,-99.99,,2013-08-08 12:11:00,
2013-08-08 06:21:00,57.0,41.0,-100.00,NNW,347,12.0,16.0,55,0.00,,,-99.99,,2013-08-08 12:21:00,
2013-08-08 06:32:00,57.0,41.0,-100.00,NNW,347,13.0,17.0,55,0.00,,,-99.99,,2013-08-08 12:32:00,
2013-08-08 06:43:00,57.0,41.0,-100.00,NNW,340,16.0,20.0,54,0.00,,,-99.99,,2013-08-08 12:43:00,
2013-08-08 06:52:00,57.0,41.0,-100.00,NNW,346,14.0,17.0,55,0.00,,,-99.99,,2013-08-08 12:52:00,
2013-08-08 07:01:00,58.0,41.0,-100.00,NNW,344,11.0,12.0,54,0.00,,,-99.99,,2013-08-08 13:01:00,
2013-08-08 07:11:00,58.0,41.0,-100.00,NNW,342,11.0,14.0,53,0.00,,,-99.99,,2013-08-08 13:11:00,
2013-08-08 07:22:00,58.0,41.0,-100.00,NNW,343,11.0,13.0,53,0.00,,,-99.99,,2013-08-08 13:22:00,
2013-08-08 07:32:00,59.0,41.0,-100.00,North,350,12.0,17.0,50,0.00,,,-99.99,,2013-08-08 13:32:00,
2013-08-08 07:43:00,60.0,41.0,-100.00,North,0,10.0,12.0,50,0.00,,,-99.99,,2013-08-08 13:43:00,
2013-08-08 07:52:00,60.0,41.0,-100.00,North,359,11.0,12.0,49,0.00,,,-99.99,,2013-08-08 13:52:00,
2013-08-08 08:02:00,61.0,41.0,-100.00,North,3,9.0,11.0,48,0.00,,,-99.99,,2013-08-08 14:02:00,
2013-08-08 08:22:00,62.0,41.0,-100.00,North,0,11.0,12.0,46,0.00,,,-99.99,,2013-08-08 14:22:00,
2013-08-08 08:32:00,62.0,40.0,-100.00,North,0,12.0,14.0,45,0.00,,,-99.99,,2013-08-08 14:32:00,
2013-08-08 08:43:00,63.0,41.0,-100.00,North,0,9.0,11.0,45,0.00,,,-99.99,,2013-08-08 14:43:00,
2013-08-08 08:53:00,63.0,40.0,-100.00,NNE,13,9.0,11.0,42,0.00,,,-99.99,,2013-08-08 14:53:00,
2013-08-08 09:02:00,64.0,40.0,-100.00,NNE,24,7.0,9.0,42,0.00,,,-99.99,,2013-08-08 15:02:00,
2013-08-08 09:11:00,64.0,39.0,-100.00,NNE,30,9.0,12.0,40,0.00,,,-99.99,,2013-08-08 15:11:00,
2013-08-08 09:22:00,64.0,40.0,-100.00,North,10,9.0,11.0,41,0.00,,,-99.99,,2013-08-08 15:22:00,
2013-08-08 09:32:00,64.0,38.0,-100.00,NNE,21,6.0,11.0,38,0.00,,,-99.99,,2013-08-08 15:32:00,
2013-08-08 09:43:00,64.0,39.0,-100.00,NE,47,4.0,9.0,39,0.00,,,-99.99,,2013-08-08 15:43:00,
2013-08-08 09:53:00,65.0,38.0,-100.00,East,92,6.0,9.0,37,0.00,,,-99.99,,2013-08-08 15:53:00,
2013-08-08 10:01:00,65.0,39.0,-100.00,East,83,6.0,12.0,38,0.00,,,-99.99,,2013-08-08 16:01:00,
2013-08-08 10:11:00,65.0,39.0,-100.00,ENE,59,7.0,11.0,37,0.00,,,-99.99,,2013-08-08 16:11:00,
2013-08-08 10:22:00,65.0,37.0,-100.00,ENE,64,6.0,7.0,35,0.00,,,-99.99,,2013-08-08 16:22:00,
2013-08-08 10:32:00,67.0,38.0,-100.00,NE,56,4.0,9.0,35,0.00,,,-99.99,,2013-08-08 16:32:00,
2013-08-08 10:42:00,67.0,39.0,-100.00,East,90,10.0,12.0,36,0.00,,,-99.99,,2013-08-08 16:42:00,
2013-08-08 10:52:00,66.0,40.0,-100.00,ESE,110,12.0,16.0,38,0.00,,,-99.99,,2013-08-08 16:52:00,
2013-08-08 11:01:00,66.0,40.0,-100.00,ENE,75,9.0,13.0,38,0.00,,,-99.99,,2013-08-08 17:01:00,
2013-08-08 11:11:00,67.0,39.0,-100.00,ENE,65,6.0,13.0,36,0.00,,,-99.99,,2013-08-08 17:11:00,
2013-08-08 11:21:00,67.0,39.0,-100.00,ENE,73,10.0,13.0,36,0.00,,,-99.99,,2013-08-08 17:21:00,
2013-08-08 11:32:00,68.0,39.0,-100.00,East,90,9.0,13.0,34,0.00,,,-99.99,,2013-08-08 17:32:00,
2013-08-08 11:43:00,67.0,39.0,-100.00,ESE,112,8.0,14.0,35,0.00,,,-99.99,,2013-08-08 17:43:00,
2013-08-08 11:52:00,68.0,39.0,-100.00,NE,47,8.0,11.0,34,0.00,,,-99.99,,2013-08-08 17:52:00,
2013-08-08 12:01:00,68.0,38.0,-100.00,ESE,114,4.0,9.0,34,0.00,,,-99.99,,2013-08-08 18:01:00,
2013-08-08 12:11:00,69.0,37.0,-100.00,NE,49,3.0,7.0,32,0.00,,,-99.99,,2013-08-08 18:11:00,
2013-08-08 12:22:00,69.0,38.0,-100.00,East,93,11.0,17.0,32,0.00,,,-99.99,,2013-08-08 18:22:00,
2013-08-08 12:32:00,67.0,37.0,-100.00,ESE,117,7.0,9.0,32,0.00,,,-99.99,,2013-08-08 18:32:00,
2013-08-08 12:43:00,68.0,36.0,-100.00,ENE,58,8.0,14.0,31,0.00,,,-99.99,,2013-08-08 18:43:00,
2013-08-08 12:52:00,67.0,36.0,-100.00,WNW,294,5.0,8.0,32,0.00,,,-99.99,,2013-08-08 18:52:00,
2013-08-08 13:01:00,67.0,35.0,-100.00,NNE,21,7.0,11.0,30,0.00,,,-99.99,,2013-08-08 19:01:00,
2013-08-08 13:11:00,65.0,37.0,-100.00,NW,319,11.0,12.0,34,0.00,,,-99.99,,2013-08-08 19:11:00,
2013-08-08 13:22:00,66.0,36.0,-100.00,North,349,9.0,12.0,33,0.00,,,-99.99,,2013-08-08 19:22:00,
2013-08-08 13:43:00,64.0,25.0,-100.00,NNW,342,21.0,27.0,22,0.00,,,-99.99,,2013-08-08 19:43:00,
2013-08-08 13:54:00,64.0,23.0,-100.00,NW,320,14.0,17.0,20,0.00,,,-99.99,,2013-08-08 19:54:00,
2013-08-08 14:02:00,64.0,25.0,-100.00,North,7,12.0,17.0,23,0.27,,,-99.99,,2013-08-08 20:02:00,
2013-08-08 14:11:00,62.0,26.0,-100.00,NNW,328,7.0,14.0,25,0.37,,,-99.99,,2013-08-08 20:11:00,
2013-08-08 14:22:00,59.0,29.0,-100.00,WSW,247,14.0,21.0,33,0.40,,,-99.99,,2013-08-08 20:22:00,
2013-08-08 14:32:00,59.0,29.0,-100.00,South,181,6.0,11.0,32,0.23,,,-99.99,,2013-08-08 20:32:00,
2013-08-08 14:42:00,58.0,33.0,-100.00,West,263,6.0,10.0,38,0.00,,,-99.99,,2013-08-08 20:42:00,
2013-08-08 15:01:00,55.0,38.0,-100.00,NW,305,16.0,19.0,52,0.00,,,-99.99,,2013-08-08 21:01:00,
2013-08-08 15:12:00,56.0,33.0,-100.00,NW,320,24.0,30.0,41,0.06,,,-99.99,,2013-08-08 21:12:00,
2013-08-08 15:22:00,55.0,37.0,-100.00,NW,315,17.0,20.0,50,0.01,,,-99.99,,2013-08-08 21:22:00,
2013-08-08 15:33:00,54.0,39.0,-100.00,NNE,20,17.0,18.0,56,0.07,,,-99.99,,2013-08-08 21:33:00,
2013-08-08 15:43:00,56.0,39.0,-100.00,ENE,65,21.0,24.0,53,0.04,,,-99.99,,2013-08-08 21:43:00,
2013-08-08 15:52:00,59.0,39.0,-100.00,NE,55,21.0,23.0,49,0.00,,,-99.99,,2013-08-08 21:52:00,
2013-08-08 16:04:00,60.0,41.0,-100.00,ENE,68,12.0,16.0,48,0.00,,,-99.99,,2013-08-08 22:04:00,
2013-08-08 16:15:00,63.0,34.0,-100.00,ENE,66,16.0,20.0,34,0.00,,,-99.99,,2013-08-08 22:15:00,
2013-08-08 16:22:00,65.0,38.0,-100.00,East,79,17.0,24.0,36,0.00,,,-99.99,,2013-08-08 22:22:00,
2013-08-08 16:33:00,66.0,29.0,-100.00,NE,45,9.0,12.0,25,0.00,,,-99.99,,2013-08-08 22:33:00,
2013-08-08 16:47:00,67.0,26.0,-100.00,East,85,4.0,9.0,22,0.00,,,-99.99,,2013-08-08 22:47:00,
2013-08-08 16:54:00,67.0,28.0,-100.00,West,280,0.0,3.0,22,0.00,,,-99.99,,2013-08-08 22:54:00,
2013-08-08 17:04:00,68.0,27.0,-100.00,WSW,251,4.0,6.0,21,0.00,,,-99.99,,2013-08-08 23:04:00,
2013-08-08 17:14:00,67.0,30.0,-100.00,WSW,240,3.0,5.0,24,0.00,,,-99.99,,2013-08-08 23:14:00,
2013-08-08 17:23:00,70.0,29.0,-100.00,West,270,1.0,2.0,22,0.00,,,-99.99,,2013-08-08 23:23:00,
2013-08-08 17:34:00,68.0,27.0,-100.00,South,185,2.0,2.0,21,0.00,,,-99.99,,2013-08-08 23:34:00,
2013-08-08 17:44:00,70.0,28.0,-100.00,ENE,75,0.0,1.0,21,0.00,,,-99.99,,2013-08-08 23:44:00,
2013-08-08 17:53:00,69.0,24.0,-100.00,SSW,202,1.0,3.0,18,0.00,,,-99.99,,2013-08-08 23:53:00,
2013-08-08 18:04:00,69.0,27.0,-100.00,South,182,3.0,5.0,21,0.00,,,-99.99,,2013-08-09 00:04:00,
2013-08-08 18:14:00,69.0,27.0,-100.00,East,96,6.0,7.0,21,0.00,,,-99.99,,2013-08-09 00:14:00,
2013-08-08 18:24:00,67.0,31.0,-100.00,NNW,347,17.0,20.0,25,0.00,,,-99.99,,2013-08-09 00:24:00,
2013-08-08 18:34:00,64.0,33.0,-100.00,North,353,19.0,24.0,31,0.00,,,-99.99,,2013-08-09 00:34:00,
2013-08-08 18:45:00,63.0,33.0,-100.00,North,350,21.0,24.0,32,0.00,,,-99.99,,2013-08-09 00:45:00,
2013-08-08 18:53:00,63.0,32.0,-100.00,North,359,18.0,21.0,31,0.00,,,-99.99,,2013-08-09 00:53:00,
2013-08-08 19:02:00,63.0,32.0,-100.00,North,350,17.0,22.0,31,0.00,,,-99.99,,2013-08-09 01:02:00,
2013-08-08 19:13:00,63.0,32.0,-100.00,North,1,15.0,17.0,32,0.00,,,-99.99,,2013-08-09 01:13:00,
2013-08-08 19:23:00,63.0,32.0,-100.00,North,359,17.0,23.0,32,0.00,,,-99.99,,2013-08-09 01:23:00,
2013-08-08 19:33:00,62.0,33.0,-100.00,North,353,17.0,20.0,33,0.00,,,-99.99,,2013-08-09 01:33:00,
2013-08-08 19:45:00,62.0,33.0,-100.00,NNW,343,18.0,21.0,33,0.00,,,-99.99,,2013-08-09 01:45:00,
2013-08-08 20:03:00,61.0,33.0,-100.00,North,0,18.0,21.0,34,0.00,,,-99.99,,2013-08-09 02:03:00,
2013-08-08 20:12:00,62.0,33.0,-100.00,North,3,17.0,21.0,34,0.00,,,-99.99,,2013-08-09 02:12:00,
2013-08-08 20:23:00,61.0,32.0,-100.00,North,1,17.0,22.0,34,0.00,,,-99.99,,2013-08-09 02:23:00,
2013-08-08 20:44:00,61.0,32.0,-100.00,North,0,19.0,24.0,34,0.00,,,-99.99,,2013-08-09 02:44:00,
2013-08-08 20:55:00,61.0,32.0,-100.00,North,360,17.0,19.0,34,0.00,,,-99.99,,2013-08-09 02:55:00,
2013-08-08 21:04:00,60.0,32.0,-100.00,NNE,16,17.0,22.0,34,0.00,,,-99.99,,2013-08-09 03:04:00,
2013-08-08 21:13:00,60.0,33.0,-100.00,NNE,16,16.0,18.0,36,0.00,,,-99.99,,2013-08-09 03:13:00,
2013-08-08 21:23:00,58.0,35.0,-100.00,NNE,32,16.0,18.0,41,0.00,,,-99.99,,2013-08-09 03:23:00,
2013-08-08 21:34:00,58.0,36.0,-100.00,NE,35,15.0,17.0,45,0.00,,,-99.99,,2013-08-09 03:34:00,
2013-08-08 21:44:00,57.0,37.0,-100.00,NNE,31,13.0,16.0,46,0.00,,,-99.99,,2013-08-09 03:44:00,
2013-08-08 21:52:00,57.0,37.0,-100.00,NNE,27,11.0,13.0,47,0.00,,,-99.99,,2013-08-09 03:52:00,
2013-08-08 22:01:00,57.0,37.0,-100.00,West,270,2.0,6.0,47,0.00,,,-99.99,,2013-08-09 04:01:00,
2013-08-08 22:12:00,57.0,37.0,-100.00,SW,230,4.0,6.0,46,0.00,,,-99.99,,2013-08-09 04:12:00,
2013-08-08 22:22:00,57.0,38.0,-100.00,North,0,4.0,11.0,49,0.00,,,-99.99,,2013-08-09 04:22:00,
2013-08-08 22:33:00,58.0,38.0,-100.00,NE,38,6.0,11.0,48,0.00,,,-99.99,,2013-08-09 04:33:00,
2013-08-08 22:43:00,57.0,38.0,-100.00,NNE,32,6.0,7.0,48,0.00,,,-99.99,,2013-08-09 04:43:00,
2013-08-08 22:53:00,57.0,39.0,-100.00,NE,54,9.0,12.0,51,0.00,,,-99.99,,2013-08-09 04:53:00,
2013-08-08 23:02:00,56.0,40.0,-100.00,ENE,59,6.0,7.0,53,0.00,,,-99.99,,2013-08-09 05:02:00,
2013-08-08 23:11:00,56.0,40.0,-100.00,NE,34,4.0,7.0,53,0.00,,,-99.99,,2013-08-09 05:11:00,
2013-08-08 23:21:00,56.0,40.0,-100.00,North,7,2.0,3.0,55,0.00,,,-99.99,,2013-08-09 05:21:00,
2013-08-08 23:32:00,56.0,40.0,-100.00,NNW,342,3.0,4.0,54,0.00,,,-99.99,,2013-08-09 05:32:00,
2013-08-08 23:43:00,56.0,40.0,-100.00,North,356,4.0,6.0,56,0.00,,,-99.99,,2013-08-09 05:43:00,
2013-08-08 23:52:00,56.0,40.0,-100.00,North,10,4.0,6.0,55,0.00,,,-99.99,,2013-08-09 05:52:00,